Time;durP1;ratioP1;P1;durP2;ratioP2;P2;SDS_P1;SDS_P2;PMS_P1;PMS_P2;Temp;Humidity;BMP_temperature;BMP_pressure;BME280_temperature;BME280_humidity;BME280_pressure;Samples;Min_cycle;Max_cycle;Signal;HPM_P1;HPM_P2
2023/03/02 00:02:02;;;;;;;25.95;9.93;;;;;;;-1.18;100.00;102325.63;5227713;28;20089;-75
2023/03/02 00:04:53;;;;;;;26.98;10.25;;;;;;;-1.23;100.00;102323.16;5209651;28;20112;-75
2023/03/02 00:07:31;;;;;;;25.88;10.38;;;;;;;-1.23;100.00;102328.44;5211115;28;20033;-75
2023/03/02 00:10:03;;;;;;;21.80;9.23;;;;;;;-1.25;100.00;102329.41;5196006;28;20107;-75
2023/03/02 00:12:34;;;;;;;23.70;10.18;;;;;;;-1.29;100.00;102327.78;5191637;28;20057;-75
2023/03/02 00:15:05;;;;;;;26.27;10.20;;;;;;;-1.33;100.00;102334.94;5189798;28;20064;-74
2023/03/02 00:17:36;;;;;;;21.23;9.13;;;;;;;-1.35;100.00;102340.25;5207121;28;20056;-75
2023/03/02 00:20:09;;;;;;;24.15;9.93;;;;;;;-1.38;100.00;102337.72;5220599;28;20029;-74
2023/03/02 00:22:44;;;;;;;21.58;9.80;;;;;;;-1.39;100.00;102340.41;5189850;28;20033;-75
2023/03/02 00:25:16;;;;;;;21.00;9.38;;;;;;;-1.46;100.00;102331.84;5208619;28;20022;-75
2023/03/02 00:27:47;;;;;;;19.33;9.57;;;;;;;-1.47;100.00;102334.53;5207047;28;20029;-75
2023/03/02 00:30:17;;;;;;;22.48;8.73;;;;;;;-1.49;100.00;102331.97;5207825;28;20033;-75
2023/03/02 00:32:48;;;;;;;28.02;10.07;;;;;;;-1.49;100.00;102337.22;5207121;28;20025;-75
2023/03/02 00:35:19;;;;;;;20.75;9.40;;;;;;;-1.50;100.00;102337.31;5207315;28;20029;-75
2023/03/02 00:37:49;;;;;;;25.83;10.27;;;;;;;-1.51;100.00;102336.41;5206778;28;20045;-75
2023/03/02 00:40:20;;;;;;;22.02;9.13;;;;;;;-1.52;100.00;102332.06;5206846;28;20095;-74
2023/03/02 00:42:50;;;;;;;22.58;9.27;;;;;;;-1.53;100.00;102330.34;5189937;28;20029;-75
2023/03/02 00:45:21;;;;;;;19.90;8.93;;;;;;;-1.54;100.00;102325.16;5226840;28;20381;-74
2023/03/02 00:47:51;;;;;;;23.77;8.90;;;;;;;-1.57;100.00;102329.59;5226112;28;20032;-75
2023/03/02 00:50:22;;;;;;;26.27;9.55;;;;;;;-1.59;100.00;102328.78;5226816;28;20017;-75
2023/03/02 00:52:52;;;;;;;23.70;9.80;;;;;;;-1.59;100.00;102318.25;5226658;28;20024;-75
2023/03/02 00:55:23;;;;;;;19.10;8.63;;;;;;;-1.62;100.00;102315.72;5226788;28;20347;-75
2023/03/02 00:57:54;;;;;;;24.85;9.02;;;;;;;-1.64;100.00;102325.44;5225571;28;20029;-75
2023/03/02 01:00:27;;;;;;;22.25;8.45;;;;;;;-1.65;100.00;102320.25;5226317;28;20023;-75
2023/03/02 01:02:57;;;;;;;19.58;9.20;;;;;;;-1.67;100.00;102317.66;5224289;28;20397;-75
2023/03/02 01:05:28;;;;;;;24.73;9.40;;;;;;;-1.68;100.00;102315.09;5218921;28;20075;-75
2023/03/02 01:07:58;;;;;;;25.65;9.25;;;;;;;-1.70;100.00;102309.03;5225204;28;20028;-75
2023/03/02 01:10:31;;;;;;;22.63;9.52;;;;;;;-1.73;100.00;102309.97;5207875;28;20082;-75
2023/03/02 01:13:02;;;;;;;25.52;8.75;;;;;;;-1.71;100.00;102299.38;5226660;28;20643;-75
2023/03/02 01:15:33;;;;;;;21.75;8.45;;;;;;;-1.69;100.00;102310.75;5226422;28;20025;-75
2023/03/02 01:18:03;;;;;;;21.58;9.23;;;;;;;-1.67;100.00;102306.28;5225770;28;20028;-75
2023/03/02 01:20:34;;;;;;;26.38;9.52;;;;;;;-1.67;100.00;102293.97;5225715;28;20016;-75
2023/03/02 01:23:05;;;;;;;25.63;9.93;;;;;;;-1.64;100.00;102290.38;5209399;28;20036;-75
2023/03/02 01:25:37;;;;;;;21.10;9.05;;;;;;;-1.64;100.00;102295.66;5226999;28;20056;-75
2023/03/02 01:28:08;;;;;;;19.95;8.48;;;;;;;-1.65;100.00;102296.56;5225632;28;20564;-75
2023/03/02 01:30:38;;;;;;;21.92;9.02;;;;;;;-1.64;100.00;102301.78;5226157;28;20107;-75
2023/03/02 01:33:09;;;;;;;18.10;8.25;;;;;;;-1.65;100.00;102305.31;5225547;28;20108;-75
2023/03/02 01:35:39;;;;;;;26.92;9.10;;;;;;;-1.67;100.00;102301.00;5226064;28;20033;-75
2023/03/02 01:38:10;;;;;;;22.50;8.48;;;;;;;-1.72;100.00;102298.53;5225474;28;20017;-75
2023/03/02 01:40:40;;;;;;;23.52;9.68;;;;;;;-1.77;100.00;102289.94;5226112;28;20422;-75
2023/03/02 01:43:14;;;;;;;21.48;8.55;;;;;;;-1.84;100.00;102286.66;5225692;28;20086;-75
2023/03/02 01:45:50;;;;;;;20.33;8.83;;;;;;;-1.92;100.00;102283.41;5207474;28;20074;-75
2023/03/02 01:48:27;;;;;;;23.13;9.27;;;;;;;-1.98;100.00;102267.84;5225126;28;20040;-75
2023/03/02 01:50:58;;;;;;;25.10;9.40;;;;;;;-2.01;100.00;102273.19;5225689;28;20036;-75
2023/03/02 01:53:31;;;;;;;21.33;9.57;;;;;;;-2.01;100.00;102277.59;5225754;28;20129;-75
2023/03/02 01:56:04;;;;;;;21.60;9.32;;;;;;;-2.01;100.00;102275.81;5224937;28;20072;-75
2023/03/02 01:58:36;;;;;;;19.33;8.63;;;;;;;-1.99;100.00;102270.53;5224940;28;20482;-75
2023/03/02 02:03:54;;;;;;;23.17;9.95;;;;;;;-1.99;100.00;102257.38;5216401;28;20044;-75
2023/03/02 02:06:31;;;;;;;19.67;8.68;;;;;;;-2.00;100.00;102256.53;5225212;28;20032;-75
2023/03/02 02:09:04;;;;;;;27.20;9.30;;;;;;;-1.99;100.00;102260.00;5225140;28;20026;-75
2023/03/02 02:11:35;;;;;;;19.67;8.57;;;;;;;-1.97;100.00;102255.53;5225220;28;20477;-75
2023/03/02 02:14:05;;;;;;;21.58;9.15;;;;;;;-1.97;100.00;102255.53;5207297;28;20040;-75
2023/03/02 02:16:37;;;;;;;21.95;8.95;;;;;;;-1.96;100.00;102254.63;5207046;28;20031;-75
2023/03/02 02:19:45;;;;;;;20.20;8.60;;;;;;;-1.96;100.00;102252.88;5224380;28;20047;-75
2023/03/02 02:22:32;;;;;;;19.35;8.20;;;;;;;-1.97;100.00;102245.88;5224570;28;20021;-75
2023/03/02 02:25:10;;;;;;;20.92;7.97;;;;;;;-1.96;100.00;102242.38;5224814;28;20025;-75
2023/03/02 02:27:42;;;;;;;22.95;8.95;;;;;;;-1.95;100.00;102241.44;5224603;28;20139;-75
2023/03/02 02:30:14;;;;;;;22.65;9.18;;;;;;;-1.93;100.00;102239.63;5224706;28;20082;-75
2023/03/02 02:32:46;;;;;;;20.77;8.25;;;;;;;-1.93;100.00;102231.72;5224589;28;20025;-76
2023/03/02 02:35:23;;;;;;;25.50;9.00;;;;;;;-1.93;100.00;102230.88;5224563;28;20024;-75
2023/03/02 02:37:58;;;;;;;19.70;8.68;;;;;;;-1.94;100.00;102230.00;5206129;28;20063;-75
2023/03/02 02:40:44;;;;;;;;;;;;;;;-1.95;100.00;102232.69;5225030;28;20059;-75
2023/03/02 02:43:17;;;;;;;23.85;8.82;;;;;;;-1.95;100.00;102228.31;5224375;28;19909;-75
2023/03/02 02:45:54;;;;;;;18.30;8.15;;;;;;;-1.94;100.00;102229.16;5224595;28;20070;-75
2023/03/02 02:48:29;;;;;;;19.90;8.57;;;;;;;-1.92;100.00;102229.94;5223585;28;20084;-75
2023/03/02 02:51:01;;;;;;;22.17;8.95;;;;;;;-1.91;100.00;102226.41;5224200;28;20494;-75
2023/03/02 02:53:41;;;;;;;21.90;9.05;;;;;;;-1.92;100.00;102225.53;5224685;28;20025;-75
2023/03/02 02:56:13;;;;;;;17.58;7.60;;;;;;;-1.88;100.00;102232.44;5224198;28;20070;-75
2023/03/02 02:58:49;;;;;;;22.40;8.77;;;;;;;-1.87;100.00;102228.88;5223485;28;20016;-75
2023/03/02 03:01:24;;;;;;;17.48;8.05;;;;;;;-1.89;100.00;102227.22;5224073;28;20089;-75
2023/03/02 03:03:59;;;;;;;20.80;8.18;;;;;;;-1.90;100.00;102228.16;5215230;28;20036;-75
2023/03/02 03:06:37;;;;;;;18.27;8.10;;;;;;;-1.92;100.00;102229.94;5224135;28;20386;-75
2023/03/02 03:09:10;;;;;;;18.38;8.20;;;;;;;-1.93;100.00;102233.50;5223487;28;20391;-75
2023/03/02 03:11:44;;;;;;;19.92;8.60;;;;;;;-1.94;100.00;102231.78;5224008;28;20111;-75
2023/03/02 03:14:17;;;;;;;15.40;7.82;;;;;;;-1.97;100.00;102229.25;5224457;28;20443;-75
2023/03/02 03:16:49;;;;;;;22.15;8.38;;;;;;;-1.97;100.00;102229.25;5223558;28;20024;-75
2023/03/02 03:19:22;;;;;;;18.48;7.88;;;;;;;-2.00;100.00;102224.97;5223687;28;20082;-75
2023/03/02 03:21:56;;;;;;;19.80;8.32;;;;;;;-2.00;100.00;102229.38;5223940;28;20277;-75
2023/03/02 03:24:28;;;;;;;20.67;8.30;;;;;;;-2.01;100.00;102217.97;5223843;28;20028;-75
2023/03/02 03:27:00;;;;;;;22.23;8.82;;;;;;;-2.00;100.00;102224.09;5205564;28;20533;-75
2023/03/02 03:29:31;;;;;;;18.80;8.48;;;;;;;-1.96;100.00;102217.81;5225149;28;20028;-73
2023/03/02 03:32:03;;;;;;;17.38;7.78;;;;;;;-1.95;100.00;102222.19;5227500;28;20024;-73
2023/03/02 03:34:39;;;;;;;19.10;8.82;;;;;;;-1.94;100.00;102216.84;5228263;28;20082;-73
2023/03/02 03:37:13;;;;;;;18.33;8.10;;;;;;;-1.92;100.00;102220.28;5227748;28;20110;-73
2023/03/02 03:39:44;;;;;;;20.20;8.32;;;;;;;-1.94;100.00;102219.50;5227802;28;20029;-73
2023/03/02 03:42:15;;;;;;;20.98;8.20;;;;;;;-1.94;100.00;102222.13;5209934;28;20301;-73
2023/03/02 03:44:46;;;;;;;25.38;8.82;;;;;;;-1.92;100.00;102227.31;5209940;28;20106;-73
2023/03/02 03:47:16;;;;;;;17.90;7.05;;;;;;;-1.94;100.00;102224.75;5227244;28;20050;-73
2023/03/02 03:49:47;;;;;;;18.80;8.18;;;;;;;-1.94;100.00;102223.91;5227756;28;20487;-73
2023/03/02 03:52:17;;;;;;;22.08;8.35;;;;;;;-1.99;100.00;102217.94;5228062;28;20540;-73
2023/03/02 03:54:48;;;;;;;18.42;8.95;;;;;;;-2.00;100.00;102224.09;5227624;28;20033;-75
2023/03/02 03:57:18;;;;;;;21.58;8.70;;;;;;;-2.01;100.00;102225.00;5227085;28;20385;-75
2023/03/02 03:59:48;;;;;;;19.02;8.35;;;;;;;-2.03;100.00;102227.69;5227529;28;20397;-75
2023/03/02 04:02:19;;;;;;;19.20;7.82;;;;;;;-2.04;100.00;102227.75;5227381;28;20024;-75
2023/03/02 04:04:50;;;;;;;19.98;8.75;;;;;;;-2.06;100.00;102222.53;5218755;28;20134;-75
2023/03/02 04:07:20;;;;;;;24.17;9.25;;;;;;;-2.09;100.00;102230.53;5209133;28;20036;-75
2023/03/02 04:10:02;;;;;;;17.85;7.75;;;;;;;-2.12;100.00;102236.72;5227748;28;20021;-75
2023/03/02 04:12:37;;;;;;;21.92;8.68;;;;;;;-2.15;100.00;102225.47;5227428;28;20048;-75
2023/03/02 04:15:13;;;;;;;18.02;8.13;;;;;;;-2.18;100.00;102231.69;5210112;28;20029;-75
2023/03/02 04:17:44;;;;;;;18.10;7.93;;;;;;;-2.21;100.00;102226.56;5226314;28;20025;-75
2023/03/02 04:20:16;;;;;;;21.35;8.55;;;;;;;-2.25;100.00;102234.59;5227285;28;20021;-75
2023/03/02 04:22:48;;;;;;;24.58;8.80;;;;;;;-2.28;100.00;102226.78;5209531;28;20037;-75
2023/03/02 04:25:23;;;;;;;18.98;8.05;;;;;;;-2.31;100.00;102230.34;5227123;28;20035;-75
2023/03/02 04:27:54;;;;;;;21.90;8.88;;;;;;;-2.35;100.00;102234.03;5226816;28;20021;-75
2023/03/02 04:30:26;;;;;;;20.33;8.50;;;;;;;-2.40;100.00;102236.78;5226899;28;20037;-75
2023/03/02 04:32:56;;;;;;;17.05;7.95;;;;;;;-2.42;100.00;102241.22;5227379;28;20409;-75
2023/03/02 04:35:27;;;;;;;19.90;8.95;;;;;;;-2.45;100.00;102241.34;5226973;28;20024;-75
2023/03/02 04:37:58;;;;;;;16.90;8.35;;;;;;;-2.46;100.00;102242.25;5227033;28;20021;-75
2023/03/02 04:40:28;;;;;;;24.33;8.25;;;;;;;-2.46;100.00;102246.63;5226210;28;20021;-76
2023/03/02 04:42:59;;;;;;;21.75;8.65;;;;;;;-2.48;100.00;102248.44;5207797;28;20024;-75
2023/03/02 04:45:29;;;;;;;21.88;8.00;;;;;;;-2.50;100.00;102247.66;5227193;28;20100;-75
2023/03/02 04:48:00;;;;;;;18.58;8.15;;;;;;;-2.52;100.00;102246.81;5226345;28;20543;-75
2023/03/02 04:50:30;;;;;;;18.85;8.13;;;;;;;-2.51;100.00;102245.91;5226762;28;20397;-76
2023/03/02 04:53:01;;;;;;;26.65;9.57;;;;;;;-2.51;100.00;102248.53;5226586;28;20033;-75
2023/03/02 04:55:32;;;;;;;23.13;8.70;;;;;;;-2.52;100.00;102252.94;5209216;28;20090;-75
2023/03/02 04:58:03;;;;;;;21.08;9.05;;;;;;;-2.52;100.00;102246.81;5226038;28;20086;-75
2023/03/02 05:00:34;;;;;;;19.42;8.38;;;;;;;-2.52;100.00;102244.19;5208772;28;20033;-75
2023/03/02 05:03:04;;;;;;;18.25;8.40;;;;;;;-2.54;100.00;102244.25;5206103;28;20036;-75
2023/03/02 05:05:35;;;;;;;21.52;8.55;;;;;;;-2.56;100.00;102250.44;5220215;28;20104;-76
2023/03/02 05:08:06;;;;;;;18.95;8.02;;;;;;;-2.58;100.00;102244.41;5208910;28;20017;-75
2023/03/02 05:10:36;;;;;;;25.25;8.60;;;;;;;-2.63;100.00;102250.66;5208526;28;20032;-76
2023/03/02 05:13:07;;;;;;;28.42;8.65;;;;;;;-2.65;100.00;102247.22;5226632;28;20481;-75
2023/03/02 05:15:39;;;;;;;21.48;8.50;;;;;;;-2.66;100.00;102249.88;5226520;28;20120;-75
2023/03/02 05:18:11;;;;;;;28.38;8.88;;;;;;;-2.69;100.00;102255.25;5227868;28;20021;-75
2023/03/02 05:20:41;;;;;;;23.33;8.57;;;;;;;-2.70;100.00;102243.00;5227327;28;20029;-75
2023/03/02 05:23:24;;;;;;;22.17;8.15;;;;;;;-2.72;100.00;102250.91;5227104;28;20037;-75
2023/03/02 05:25:55;;;;;;;22.13;9.10;;;;;;;-2.74;100.00;102250.13;5213985;28;20028;-75
2023/03/02 05:28:27;;;;;;;21.75;8.90;;;;;;;-2.78;100.00;102248.50;5225956;28;20091;-75
2023/03/02 05:30:58;;;;;;;25.20;8.45;;;;;;;-2.79;100.00;102256.44;5226477;28;20024;-75
2023/03/02 05:33:29;;;;;;;23.85;9.00;;;;;;;-2.82;100.00;102253.88;5226702;28;20401;-75
2023/03/02 05:36:00;;;;;;;24.45;9.18;;;;;;;-2.83;100.00;102254.78;5208566;28;20047;-76
2023/03/02 05:38:30;;;;;;;18.45;8.93;;;;;;;-2.84;100.00;102250.44;5226301;28;20013;-75
2023/03/02 05:41:02;;;;;;;25.83;9.43;;;;;;;-2.85;100.00;102259.25;5226179;28;20504;-76
2023/03/02 05:43:32;;;;;;;22.75;9.15;;;;;;;-2.84;100.00;102260.97;5225903;28;20025;-75
2023/03/02 05:46:03;;;;;;;24.92;9.95;;;;;;;-2.83;100.00;102262.66;5226308;28;20025;-75
2023/03/02 05:48:33;;;;;;;24.08;9.48;;;;;;;-2.82;100.00;102257.38;5225660;28;20082;-75
2023/03/02 05:51:04;;;;;;;21.80;8.63;;;;;;;-2.82;100.00;102251.25;5208149;28;20044;-75
2023/03/02 05:53:35;;;;;;;22.90;9.18;;;;;;;-2.82;100.00;102260.00;5225977;28;20025;-75
2023/03/02 05:56:06;;;;;;;24.50;9.05;;;;;;;-2.84;100.00;102253.94;5210992;28;20096;-75
2023/03/02 05:58:36;;;;;;;23.80;10.13;;;;;;;-2.85;100.00;102254.84;5227171;28;20112;-75
2023/03/02 06:01:10;;;;;;;25.10;9.68;;;;;;;-2.85;100.00;102264.50;5226582;28;20025;-76
2023/03/02 06:03:40;;;;;;;25.25;10.35;;;;;;;-2.84;100.00;102255.69;5204432;28;20079;-75
2023/03/02 06:08:57;;;;;;;25.65;10.05;;;;;;;-2.72;100.00;102257.94;5225612;28;20036;-75
2023/03/02 06:11:29;;;;;;;33.95;11.60;;;;;;;-2.67;100.00;102248.16;5225672;28;20104;-75
2023/03/02 06:13:59;;;;;;;27.70;9.80;;;;;;;-2.62;100.00;102254.13;5225688;28;20029;-75
2023/03/02 06:16:30;;;;;;;28.80;11.32;;;;;;;-2.60;100.00;102260.22;5225027;28;20028;-75
2023/03/02 06:19:00;;;;;;;33.50;11.98;;;;;;;-2.59;100.00;102261.06;5225689;28;20029;-75
2023/03/02 06:21:31;;;;;;;31.20;11.68;;;;;;;-2.59;100.00;102251.41;5225503;28;20029;-75
2023/03/02 06:24:02;;;;;;;30.90;11.55;;;;;;;-2.55;100.00;102260.06;5225526;28;20024;-75
2023/03/02 06:26:32;;;;;;;30.10;12.43;;;;;;;-2.55;100.00;102263.56;5224580;28;20055;-75
2023/03/02 06:29:04;;;;;;;36.92;12.50;;;;;;;-2.52;100.00;102260.81;5224840;28;20637;-76
2023/03/02 06:31:34;;;;;;;30.50;11.88;;;;;;;-2.50;100.00;102266.91;5225231;28;20033;-75
2023/03/02 06:34:06;;;;;;;33.35;12.65;;;;;;;-2.48;100.00;102272.09;5225251;28;20208;-75
2023/03/02 06:36:37;;;;;;;26.63;11.27;;;;;;;-2.46;100.00;102267.66;5224390;28;20112;-75
2023/03/02 06:39:14;;;;;;;32.35;12.30;;;;;;;-2.43;100.00;102260.53;5225028;28;20017;-75
2023/03/02 06:41:45;;;;;;;36.83;13.35;;;;;;;-2.38;100.00;102266.50;5224552;28;20130;-75
2023/03/02 06:44:17;;;;;;;38.63;14.68;;;;;;;-2.32;100.00;102264.59;5224921;28;20029;-75
2023/03/02 06:46:47;;;;;;;35.97;13.32;;;;;;;-2.27;100.00;102260.91;5223894;28;20033;-75
2023/03/02 06:49:18;;;;;;;33.13;13.48;;;;;;;-2.15;100.00;102257.03;5224179;28;20078;-75
2023/03/02 06:51:48;;;;;;;33.95;12.32;;;;;;;-2.06;100.00;102267.22;5224392;28;20078;-75
2023/03/02 06:54:19;;;;;;;38.25;13.82;;;;;;;-1.98;100.00;102266.97;5206791;28;20025;-76
2023/03/02 06:56:49;;;;;;;32.00;13.20;;;;;;;-1.89;100.00;102264.06;5206386;28;20033;-75
2023/03/02 06:59:20;;;;;;;36.53;14.70;;;;;;;-1.77;100.00;102270.66;5224401;28;20051;-75
2023/03/02 07:01:50;;;;;;;36.40;13.23;;;;;;;-1.71;100.00;102273.94;5206720;28;20056;-75
2023/03/02 07:04:21;;;;;;;33.28;13.00;;;;;;;-1.63;100.00;102271.06;5214675;28;20053;-75
2023/03/02 07:06:51;;;;;;;38.70;14.15;;;;;;;-1.55;100.00;102278.69;5223917;28;20025;-75
2023/03/02 07:09:22;;;;;;;38.15;13.10;;;;;;;-1.47;100.00;102271.38;5224135;28;20029;-75
2023/03/02 07:11:52;;;;;;;37.67;15.23;;;;;;;-1.31;100.00;102277.78;5223821;28;20029;-75
2023/03/02 07:14:23;;;;;;;32.58;13.30;;;;;;;-1.09;100.00;102280.53;5190253;28;20521;-75
2023/03/02 07:16:56;;;;;;;30.45;13.52;;;;;;;-0.85;100.00;102281.41;5223520;28;20103;-76
2023/03/02 07:19:26;;;;;;;38.15;13.98;;;;;;;-0.49;100.00;102279.13;5206661;28;20817;-76
2023/03/02 07:21:57;;;;;;;34.65;13.63;;;;;;;-0.02;100.00;102271.06;5224133;28;20115;-75
2023/03/02 07:24:27;;;;;;;32.53;13.98;;;;;;;0.54;100.00;102278.34;5224300;28;20401;-76
2023/03/02 07:26:58;;;;;;;33.35;12.48;;;;;;;1.02;100.00;102280.59;5223880;28;20485;-75
2023/03/02 07:29:29;;;;;;;35.45;13.32;;;;;;;1.43;100.00;102287.53;5223782;28;20489;-73
2023/03/02 07:31:59;;;;;;;35.05;13.77;;;;;;;1.71;100.00;102287.97;5206290;28;20031;-73
2023/03/02 07:34:29;;;;;;;34.45;13.52;;;;;;;1.99;100.00;102273.34;5224294;28;20024;-73
2023/03/02 07:37:00;;;;;;;31.92;14.07;;;;;;;2.09;100.00;102274.63;5223554;28;20503;-73
2023/03/02 07:39:30;;;;;;;38.45;14.73;;;;;;;2.18;100.00;102276.81;5223722;28;20021;-73
2023/03/02 07:42:03;;;;;;;29.08;13.68;;;;;;;2.38;100.00;102280.25;5223881;28;20021;-73
2023/03/02 07:44:33;;;;;;;29.58;13.68;;;;;;;2.53;100.00;102282.09;5210475;28;20029;-73
2023/03/02 07:47:04;;;;;;;35.90;14.32;;;;;;;2.65;100.00;102281.44;5208190;28;20028;-73
2023/03/02 07:49:35;;;;;;;34.20;14.10;;;;;;;2.75;100.00;102277.38;5194068;28;20021;-73
2023/03/02 07:52:06;;;;;;;29.75;13.60;;;;;;;2.99;100.00;102285.81;5205456;28;20024;-75
2023/03/02 07:54:37;;;;;;;32.75;14.45;;;;;;;3.19;100.00;102281.25;5222708;28;20493;-75
2023/03/02 07:57:07;;;;;;;35.75;14.38;;;;;;;3.46;100.00;102285.03;5222136;28;20086;-75
2023/03/02 07:59:38;;;;;;;29.88;14.57;;;;;;;3.79;100.00;102284.06;5222413;28;20021;-75
2023/03/02 08:02:13;;;;;;;31.70;14.77;;;;;;;3.85;100.00;102289.03;5222820;28;20028;-75
2023/03/02 08:04:43;;;;;;;34.15;14.82;;;;;;;4.09;100.00;102281.47;5208769;28;20355;-75
2023/03/02 08:07:14;;;;;;;36.47;14.57;;;;;;;4.25;100.00;102286.72;5221795;28;20028;-75
2023/03/02 08:09:44;;;;;;;34.70;14.68;;;;;;;4.46;100.00;102282.78;5222604;28;20100;-75
2023/03/02 08:12:15;;;;;;;31.25;13.73;;;;;;;4.71;100.00;102284.81;5222888;28;20021;-75
2023/03/02 08:14:46;;;;;;;30.33;14.45;;;;;;;4.52;100.00;102278.91;5222564;28;20098;-75
2023/03/02 08:17:17;;;;;;;38.30;15.00;;;;;;;4.68;100.00;102285.03;5224606;28;20057;-75
2023/03/02 08:19:49;;;;;;;30.88;14.98;;;;;;;4.94;100.00;102286.09;5208376;28;20069;-75
2023/03/02 08:22:19;;;;;;;29.27;14.18;;;;;;;4.90;100.00;102290.72;5226278;28;20037;-75
2023/03/02 08:24:50;;;;;;;30.75;15.15;;;;;;;4.90;100.00;102298.72;5226323;28;20110;-75
2023/03/02 08:27:21;;;;;;;32.33;15.13;;;;;;;5.23;100.00;102296.72;5225026;28;20393;-75
2023/03/02 08:29:53;;;;;;;34.55;15.63;;;;;;;5.31;100.00;102297.09;5225100;28;20071;-75
2023/03/02 08:32:23;;;;;;;32.33;14.93;;;;;;;5.51;100.00;102299.34;5226208;28;20043;-75
2023/03/02 08:34:54;;;;;;;35.63;15.57;;;;;;;5.53;100.00;102293.94;5225659;28;20021;-75
2023/03/02 08:37:24;;;;;;;33.58;16.35;;;;;;;5.76;100.00;102295.09;5224902;28;20086;-75
2023/03/02 08:39:54;;;;;;;37.88;16.45;;;;;;;5.97;100.00;102297.25;5225712;28;20497;-75
2023/03/02 08:42:25;;;;;;;35.50;17.02;;;;;;;6.13;100.00;102296.25;5208052;28;20455;-75
2023/03/02 08:44:56;;;;;;;37.40;16.52;;;;;;;6.23;100.00;102287.53;5225011;28;20055;-75
2023/03/02 08:47:27;;;;;;;34.45;15.80;;;;;;;6.21;100.00;102285.91;5209446;28;20025;-75
2023/03/02 08:49:57;;;;;;;33.55;15.07;;;;;;;5.90;100.00;102279.06;5208073;28;20112;-75
2023/03/02 08:52:28;;;;;;;37.85;15.55;;;;;;;6.07;100.00;102284.16;5208699;28;20508;-75
2023/03/02 08:54:59;;;;;;;33.22;16.15;;;;;;;6.20;100.00;102278.88;5225786;28;20033;-75
2023/03/02 08:57:29;;;;;;;31.92;16.05;;;;;;;6.25;100.00;102274.09;5225438;28;20032;-75
2023/03/02 09:00:00;;;;;;;33.35;16.15;;;;;;;6.22;100.00;102271.63;5225960;28;20098;-75
2023/03/02 09:02:30;;;;;;;38.25;17.40;;;;;;;6.27;100.00;102284.63;5225902;28;20377;-75
2023/03/02 09:05:01;;;;;;;39.53;16.55;;;;;;;6.46;100.00;102272.63;5217215;28;20170;-75
2023/03/02 09:07:31;;;;;;;34.30;16.50;;;;;;;6.71;100.00;102281.59;5224240;28;20036;-75
2023/03/02 09:10:02;;;;;;;34.50;16.95;;;;;;;6.60;100.00;102279.69;5225805;28;20017;-75
2023/03/02 09:12:33;;;;;;;35.88;16.83;;;;;;;6.80;100.00;102272.13;5227474;28;20087;-75
2023/03/02 09:15:04;;;;;;;35.50;15.77;;;;;;;6.90;100.00;102266.03;5229197;28;20431;-75
2023/03/02 09:17:35;;;;;;;31.45;16.20;;;;;;;6.95;100.00;102268.38;5229187;28;20044;-75
2023/03/02 09:20:07;;;;;;;33.55;15.88;;;;;;;7.16;100.00;102268.66;5226568;28;20954;-76
2023/03/02 09:22:37;;;;;;;34.08;16.90;;;;;;;6.79;100.00;102263.28;5225967;28;20029;-75
2023/03/02 09:25:08;;;;;;;36.88;16.58;;;;;;;6.82;100.00;102262.19;5225912;28;20031;-76
2023/03/02 09:27:38;;;;;;;31.83;15.05;;;;;;;6.69;100.00;102265.72;5224442;28;20032;-76
2023/03/02 09:30:10;;;;;;;34.13;16.50;;;;;;;6.75;100.00;102257.28;5225334;28;20067;-75
2023/03/02 09:32:40;;;;;;;39.50;16.35;;;;;;;7.09;100.00;102257.59;5226004;28;20544;-75
2023/03/02 09:35:11;;;;;;;36.78;16.00;;;;;;;7.11;100.00;102260.13;5225869;28;20112;-75
2023/03/02 09:37:42;;;;;;;31.70;15.00;;;;;;;6.91;100.00;102253.53;5225385;28;20120;-75
2023/03/02 09:40:29;;;;;;;35.58;16.45;;;;;;;7.15;100.00;102257.13;5225358;28;20037;-75
2023/03/02 09:43:16;;;;;;;28.88;13.90;;;;;;;7.03;100.00;102250.03;5207384;28;20031;-75
2023/03/02 09:46:11;;;;;;;31.20;14.05;;;;;;;7.19;100.00;102252.44;5225412;28;20051;-75
2023/03/02 09:48:56;;;;;;;30.83;14.63;;;;;;;7.33;100.00;102254.97;5225402;28;20028;-75
2023/03/02 09:51:49;;;;;;;30.87;14.37;;;;;;;6.69;100.00;102257.72;5225018;28;20393;-75
2023/03/02 09:54:24;;;;;;;28.58;14.13;;;;;;;6.70;100.00;102256.75;5225010;28;20043;-75
2023/03/02 09:56:56;;;;;;;29.42;14.38;;;;;;;6.84;100.00;102249.59;5224489;28;20670;-75
2023/03/02 09:59:33;;;;;;;31.20;14.00;;;;;;;7.16;100.00;102253.50;5224320;28;20330;-75
2023/03/02 10:02:05;;;;;;;30.67;14.07;;;;;;;7.25;100.00;102255.50;5225017;28;20140;-75
2023/03/02 10:04:59;;;;;;;44.38;17.20;;;;;;;7.53;100.00;102242.84;5216127;28;20033;-75
2023/03/02 10:07:32;;;;;;;32.65;15.23;;;;;;;7.83;100.00;102247.75;5192210;28;20025;-75
2023/03/02 10:10:20;;;;;;;32.10;14.82;;;;;;;7.84;100.00;102246.78;5224018;28;20291;-75
2023/03/02 10:13:01;;;;;;;32.35;15.75;;;;;;;8.13;100.00;102241.88;5224702;28;20493;-75
2023/03/02 10:15:33;;;;;;;32.15;14.63;;;;;;;8.36;100.00;102240.16;5224576;28;20112;-75
2023/03/02 10:18:38;;;;;;;35.20;15.82;;;;;;;8.36;100.00;102244.63;5205617;28;20021;-76
2023/03/02 10:21:21;;;;;;;33.75;15.50;;;;;;;8.19;100.00;102238.75;5213830;28;20029;-76
2023/03/02 10:24:10;;;;;;;31.70;14.48;;;;;;;8.31;100.00;102240.50;5206608;28;20394;-76
2023/03/02 10:27:16;;;;;;;32.30;15.60;;;;;;;8.36;100.00;102240.16;5223347;28;20096;-76
2023/03/02 10:29:54;;;;;;;32.33;15.00;;;;;;;8.37;100.00;102239.19;5206050;28;20037;-75
2023/03/02 10:32:31;;;;;;;30.33;14.20;;;;;;;8.16;100.00;102235.47;5206391;28;20127;-76
2023/03/02 10:35:15;;;;;;;31.00;13.60;;;;;;;7.74;100.00;102235.06;5223897;28;20033;-76
2023/03/02 10:37:46;;;;;;;32.58;14.77;;;;;;;7.82;100.00;102229.97;5223091;28;20021;-76
2023/03/02 10:40:58;;;;;;;35.28;14.90;;;;;;;8.19;100.00;102233.41;5224124;28;20056;-76
2023/03/02 10:44:01;;;;;;;32.80;14.63;;;;;;;8.46;100.00;102224.28;5196023;28;20032;-76
2023/03/02 10:46:44;;;;;;;35.28;14.60;;;;;;;8.71;100.00;102221.38;5205169;28;20033;-76
2023/03/02 10:49:27;;;;;;;31.65;14.90;;;;;;;8.60;100.00;102225.88;5223481;28;20032;-76
2023/03/02 10:52:04;;;;;;;29.55;13.98;;;;;;;8.71;100.00;102217.84;5223789;28;20029;-76
2023/03/02 10:54:35;;;;;;;32.30;14.65;;;;;;;8.76;100.00;102221.88;5205934;28;20145;-76
2023/03/02 10:57:27;;;;;;;32.63;15.43;;;;;;;8.82;100.00;102217.84;5222847;28;20022;-76
2023/03/02 11:00:07;;;;;;;28.35;14.15;;;;;;;8.95;100.00;102215.91;5210859;28;20078;-76
2023/03/02 11:02:38;;;;;;;32.20;15.25;;;;;;;9.21;100.00;102215.66;5223609;28;20103;-76
2023/03/02 11:05:21;;;;;;;28.42;14.20;;;;;;;9.28;100.00;102217.69;5214703;28;20147;-76
2023/03/02 11:07:53;;;;;;;28.40;13.05;;;;;;;9.33;100.00;102217.31;5222267;28;20119;-76
2023/03/02 11:10:29;;;;;;;34.80;14.45;;;;;;;9.46;100.00;102219.84;5222689;28;20029;-76
2023/03/02 11:13:01;;;;;;;29.35;14.05;;;;;;;9.58;100.00;102211.66;5205775;28;20053;-76
2023/03/02 11:15:49;;;;;;;32.15;14.95;;;;;;;9.65;100.00;102219.19;5223072;28;20033;-76
2023/03/02 11:18:41;;;;;;;28.15;12.80;;;;;;;9.55;100.00;102219.09;5222605;28;20040;-76
2023/03/02 11:21:20;;;;;;;29.73;13.32;;;;;;;9.59;100.00;102213.38;5212227;28;20493;-76
2023/03/02 11:24:03;;;;;;;35.58;14.45;;;;;;;9.54;100.00;102212.06;5223033;28;20049;-76
2023/03/02 11:26:52;;;;;;;34.13;14.18;;;;;;;9.64;100.00;102212.13;5222400;28;20100;-76
2023/03/02 11:29:44;;;;;;;29.23;13.80;;;;;;;9.66;100.00;102208.34;5223269;28;20460;-76
2023/03/02 11:32:51;;;;;;;30.75;13.98;;;;;;;9.65;100.00;102208.47;5222788;28;20031;-75
2023/03/02 11:35:53;;;;;;;29.40;13.82;;;;;;;9.55;98.74;102205.72;5222815;28;20036;-76
2023/03/02 11:38:59;;;;;;;31.95;14.18;;;;;;;9.49;96.25;102206.22;5223181;28;20511;-76
2023/03/02 11:41:34;;;;;;;30.67;14.02;;;;;;;9.43;96.94;102199.50;5222711;28;20033;-76
2023/03/02 11:44:19;;;;;;;30.00;13.30;;;;;;;9.39;100.00;102197.22;5205299;28;20035;-76
2023/03/02 11:46:58;;;;;;;31.60;13.77;;;;;;;9.59;100.00;102204.50;5208808;28;20102;-76